createdAt,value
2022-11-19T00:01:49.229Z,11.20
2022-11-19T00:04:50.977Z,14.60
2022-11-19T00:07:52.732Z,13.40
2022-11-19T00:10:54.318Z,9.50
2022-11-19T00:13:56.005Z,8.80
2022-11-19T00:16:57.641Z,11.40
2022-11-19T00:19:59.254Z,11.80
2022-11-19T00:23:01.285Z,12.80
2022-11-19T00:26:12.078Z,10.70
2022-11-19T00:29:17.842Z,11.50
2022-11-19T00:32:19.840Z,11.20
2022-11-19T00:35:21.470Z,11.00
2022-11-19T00:38:23.162Z,10.50
2022-11-19T00:41:24.741Z,9.80
2022-11-19T00:44:26.360Z,9.90
2022-11-19T00:47:27.987Z,7.90
2022-11-19T00:50:29.616Z,9.00
2022-11-19T00:53:31.317Z,10.00
2022-11-19T00:56:32.974Z,10.40
2022-11-19T00:59:34.603Z,9.10
2022-11-19T01:02:36.208Z,8.20
2022-11-19T01:05:38.204Z,7.40
2022-11-19T01:08:39.848Z,9.60
2022-11-19T01:11:41.637Z,10.00
2022-11-19T01:14:43.248Z,9.40
2022-11-19T01:17:44.864Z,10.30
2022-11-19T01:20:46.662Z,7.40
2022-11-19T01:23:49.033Z,10.20
2022-11-19T01:26:50.686Z,10.20
2022-11-19T01:29:52.366Z,11.20
2022-11-19T01:32:54.088Z,10.70
2022-11-19T01:35:55.697Z,10.30
2022-11-19T01:38:57.808Z,9.70
2022-11-19T01:45:06.889Z,9.70
2022-11-19T01:48:25.940Z,11.60
2022-11-19T01:51:45.840Z,9.90
2022-11-19T01:54:52.460Z,13.10
2022-11-19T01:57:57.954Z,12.90
2022-11-19T02:00:59.923Z,13.00
2022-11-19T02:04:04.183Z,11.80
2022-11-19T02:07:07.037Z,13.00
2022-11-19T02:10:09.335Z,14.00
2022-11-19T02:16:43.619Z,12.10
2022-11-19T02:20:06.702Z,12.80
2022-11-19T02:23:45.966Z,12.70
2022-11-19T02:26:56.698Z,12.70
2022-11-19T02:30:11.925Z,12.40
2022-11-19T02:33:28.759Z,10.40
2022-11-19T02:37:02.571Z,10.40
2022-11-19T02:40:22.176Z,10.40
2022-11-19T02:43:35.171Z,10.90
2022-11-19T02:46:37.544Z,9.80
2022-11-19T02:49:44.030Z,10.30
2022-11-19T02:52:47.111Z,9.60
2022-11-19T02:56:08.055Z,10.40
2022-11-19T02:59:29.300Z,11.40
2022-11-19T03:02:55.224Z,12.40
2022-11-19T03:06:02.506Z,11.30
2022-11-19T03:09:04.496Z,10.00
2022-11-19T03:12:25.344Z,10.70
2022-11-19T03:16:05.267Z,10.30
2022-11-19T03:19:22.159Z,9.80
2022-11-19T03:22:34.207Z,10.50
2022-11-19T03:25:44.023Z,10.20
2022-11-19T03:28:47.314Z,10.70
2022-11-19T03:31:57.722Z,9.70
2022-11-19T03:35:03.697Z,9.10
2022-11-19T03:38:11.333Z,9.60
2022-11-19T03:41:16.674Z,9.30
2022-11-19T03:44:21.459Z,9.70
2022-11-19T03:47:32.965Z,9.80
2022-11-19T03:50:44.320Z,10.10
2022-11-19T03:53:46.182Z,9.70
2022-11-19T03:56:49.510Z,9.50
2022-11-19T03:59:51.198Z,9.30
2022-11-19T04:02:52.890Z,9.90
2022-11-19T04:05:54.459Z,8.50
2022-11-19T04:08:56.086Z,7.70
2022-11-19T04:11:57.758Z,10.00
2022-11-19T04:14:59.401Z,10.40
2022-11-19T04:18:01.050Z,10.80
2022-11-19T04:21:02.709Z,8.70
2022-11-19T04:24:04.807Z,10.80
2022-11-19T04:27:06.444Z,11.50
2022-11-19T04:30:09.145Z,12.40
2022-11-19T04:33:10.731Z,14.00
2022-11-19T04:36:12.453Z,9.80
2022-11-19T04:39:14.039Z,15.20
2022-11-19T04:42:15.680Z,15.30
2022-11-19T04:45:17.347Z,14.80
2022-11-19T04:48:18.973Z,12.50
2022-11-19T04:51:20.607Z,12.30
2022-11-19T04:54:22.278Z,11.90
2022-11-19T04:57:23.887Z,8.40
2022-11-19T05:00:25.584Z,11.80
2022-11-19T05:03:27.445Z,10.60
2022-11-19T05:06:29.122Z,10.80
2022-11-19T05:09:30.779Z,11.00
2022-11-19T05:12:32.457Z,10.50
2022-11-19T05:15:34.152Z,11.60
2022-11-19T05:18:35.819Z,14.40
2022-11-19T05:21:37.413Z,9.50
2022-11-19T05:24:39.207Z,11.90
2022-11-19T05:27:40.852Z,16.10
2022-11-19T05:30:42.469Z,14.00
2022-11-19T05:33:44.164Z,10.40
2022-11-19T05:36:45.855Z,9.70
2022-11-19T05:39:47.521Z,9.40
2022-11-19T05:42:49.172Z,6.70
2022-11-19T05:45:51.042Z,9.20
2022-11-19T05:48:52.706Z,11.20
2022-11-19T05:51:54.330Z,10.00
2022-11-19T05:54:55.921Z,11.50
2022-11-19T05:57:57.754Z,10.10
2022-11-19T06:00:59.650Z,9.40
2022-11-19T06:04:01.245Z,10.10
2022-11-19T06:07:03.146Z,12.80
2022-11-19T06:10:05.271Z,10.10
2022-11-19T06:16:08.592Z,9.20
2022-11-19T06:19:10.493Z,11.50
2022-11-19T06:22:12.119Z,10.30
2022-11-19T06:25:13.966Z,9.60
2022-11-19T06:28:15.576Z,13.50
2022-11-19T06:31:17.701Z,14.50
2022-11-19T06:34:19.311Z,14.10
2022-11-19T06:37:20.969Z,15.60
2022-11-19T06:40:22.608Z,11.40
2022-11-19T06:43:24.361Z,13.90
2022-11-19T06:46:25.961Z,12.10
2022-11-19T06:49:27.625Z,10.80
2022-11-19T06:52:29.253Z,14.30
2022-11-19T06:55:30.895Z,13.10
2022-11-19T06:58:33.391Z,13.20
2022-11-19T07:01:35.191Z,15.70
2022-11-19T07:04:36.924Z,12.60
2022-11-19T07:07:38.705Z,13.00
2022-11-19T07:10:40.481Z,10.70
2022-11-19T07:14:08.449Z,11.00
2022-11-19T07:17:10.115Z,9.90
2022-11-19T07:20:12.028Z,7.30
2022-11-19T07:23:13.727Z,10.10
2022-11-19T07:26:15.384Z,17.70
2022-11-19T07:29:17.131Z,14.10
2022-11-19T07:32:18.827Z,10.40
2022-11-19T07:35:20.491Z,7.50
2022-11-19T07:38:22.093Z,8.00
2022-11-19T07:41:42.390Z,8.50
2022-11-19T07:44:44.053Z,11.10
2022-11-19T07:47:45.919Z,12.90
2022-11-19T07:50:56.161Z,12.40
2022-11-19T07:53:58.172Z,14.70
2022-11-19T07:57:00.103Z,13.90
2022-11-19T08:00:03.516Z,14.10
2022-11-19T08:03:14.197Z,13.50
2022-11-19T08:06:17.986Z,13.50
2022-11-19T08:09:19.983Z,13.00
2022-11-19T08:12:21.857Z,12.30
2022-11-19T08:15:23.496Z,11.10
2022-11-19T08:18:30.913Z,11.60
2022-11-19T08:21:33.881Z,12.20
2022-11-19T08:24:35.592Z,12.40
2022-11-19T08:27:37.208Z,13.30
2022-11-19T08:30:40.362Z,11.10
2022-11-19T08:33:42.080Z,11.00
2022-11-19T08:36:44.080Z,7.90
2022-11-19T08:39:45.824Z,11.70
2022-11-19T08:43:00.869Z,13.30
2022-11-19T08:46:02.632Z,12.60
2022-11-19T08:49:04.960Z,10.60
2022-11-19T08:52:09.961Z,10.20
2022-11-19T08:55:12.450Z,9.30
2022-11-19T08:58:14.346Z,9.60
2022-11-19T09:01:17.100Z,10.00
2022-11-19T09:04:19.242Z,9.50
2022-11-19T09:10:22.801Z,9.10
2022-11-19T09:13:24.763Z,6.40
2022-11-19T09:16:27.617Z,7.30
2022-11-19T09:19:29.273Z,8.80
2022-11-19T09:22:31.118Z,10.10
2022-11-19T09:25:33.125Z,7.90
2022-11-19T09:28:35.521Z,6.90
2022-11-19T09:31:37.211Z,5.40
2022-11-19T09:34:40.743Z,5.70
2022-11-19T09:37:42.396Z,5.40
2022-11-19T09:40:50.635Z,5.10
2022-11-19T09:44:20.272Z,6.70
2022-11-19T09:47:58.530Z,6.20
2022-11-19T09:51:07.398Z,5.70
2022-11-19T09:54:16.862Z,4.30
2022-11-19T09:57:31.598Z,3.80
2022-11-19T10:00:45.611Z,4.00
2022-11-19T10:03:49.842Z,4.30
2022-11-19T10:07:00.533Z,4.00
2022-11-19T10:10:33.566Z,3.90
2022-11-19T10:13:49.637Z,4.10
2022-11-19T10:17:02.681Z,5.20
2022-11-19T10:20:22.431Z,4.90
2022-11-19T10:23:44.092Z,4.90
2022-11-19T10:26:57.475Z,4.90
2022-11-19T10:30:04.053Z,4.90
2022-11-19T10:33:30.510Z,5.00
2022-11-19T10:36:44.263Z,5.00
2022-11-19T10:40:16.841Z,5.10
2022-11-19T10:43:23.340Z,6.10
2022-11-19T10:46:28.042Z,5.60
2022-11-19T10:49:31.754Z,5.50
2022-11-19T10:53:01.828Z,6.00
2022-11-19T10:56:09.322Z,6.00
2022-11-19T10:59:15.834Z,6.00
2022-11-19T11:02:46.396Z,4.80
2022-11-19T11:05:54.871Z,4.80
2022-11-19T11:08:56.528Z,5.20
2022-11-19T11:12:38.753Z,3.90
2022-11-19T11:15:51.665Z,5.60
2022-11-19T11:18:59.535Z,5.10
2022-11-19T11:22:02.812Z,5.30
2022-11-19T11:25:26.673Z,6.50
2022-11-19T11:28:29.185Z,7.10
2022-11-19T11:31:34.200Z,6.50
2022-11-19T11:34:43.712Z,6.50
2022-11-19T11:37:50.418Z,6.60
2022-11-19T11:41:43.945Z,7.20
2022-11-19T11:47:36.161Z,5.20
2022-11-19T11:50:38.327Z,5.80
2022-11-19T11:53:42.807Z,6.70
2022-11-19T11:56:45.030Z,5.30
2022-11-19T12:03:04.339Z,6.40
2022-11-19T12:06:14.851Z,5.90
2022-11-19T12:09:19.712Z,6.80
2022-11-19T12:12:37.860Z,6.60
2022-11-19T12:15:58.154Z,6.60
2022-11-19T12:19:08.216Z,6.00
2022-11-19T12:22:21.097Z,6.10
2022-11-19T12:25:31.928Z,6.80
2022-11-19T12:28:55.009Z,7.10
2022-11-19T12:32:13.446Z,7.10
2022-11-19T12:35:21.242Z,7.00
2022-11-19T12:38:29.151Z,6.70
2022-11-19T12:41:56.029Z,7.40
2022-11-19T12:45:36.605Z,6.90
2022-11-19T12:48:59.761Z,7.20
2022-11-19T12:52:23.480Z,7.10
2022-11-19T12:55:39.273Z,7.00
2022-11-19T12:58:40.923Z,6.80
2022-11-19T13:01:48.013Z,6.90
2022-11-19T13:04:57.092Z,7.20
2022-11-19T13:08:05.405Z,6.70
2022-11-19T13:11:24.929Z,7.00
2022-11-19T13:14:39.340Z,7.10
2022-11-19T13:17:46.500Z,7.60
2022-11-19T13:21:06.811Z,7.70
2022-11-19T13:24:29.424Z,7.90
2022-11-19T13:27:31.953Z,7.70
2022-11-19T13:30:34.790Z,7.80
2022-11-19T13:33:47.731Z,9.10
2022-11-19T13:37:03.916Z,9.40
2022-11-19T13:40:16.837Z,9.60
2022-11-19T13:43:39.746Z,10.10
2022-11-19T13:46:43.911Z,10.70
2022-11-19T13:49:51.691Z,10.40
2022-11-19T13:53:01.115Z,11.00
2022-11-19T13:56:03.032Z,11.20
2022-11-19T13:59:06.336Z,10.50
2022-11-19T14:02:10.891Z,12.00
2022-11-19T14:05:15.257Z,10.70
2022-11-19T14:08:23.878Z,10.70
2022-11-19T14:11:54.574Z,11.80
2022-11-19T14:15:24.082Z,12.10
2022-11-19T14:18:50.145Z,12.00
2022-11-19T14:22:13.781Z,12.50
2022-11-19T14:26:05.837Z,12.20
2022-11-19T14:29:26.076Z,12.80
2022-11-19T14:32:33.023Z,11.50
2022-11-19T14:35:38.408Z,11.80
2022-11-19T14:38:55.204Z,15.00
2022-11-19T14:42:23.148Z,15.50
2022-11-19T14:45:25.139Z,14.40
2022-11-19T14:48:50.023Z,14.90
2022-11-19T14:51:54.523Z,13.40
2022-11-19T14:55:17.206Z,15.00
2022-11-19T14:58:22.699Z,14.00
2022-11-19T15:01:24.822Z,14.40
2022-11-19T15:04:41.782Z,13.80
2022-11-19T15:07:54.298Z,13.60
2022-11-19T15:11:10.971Z,13.30
2022-11-19T15:14:33.317Z,13.90
2022-11-19T15:17:41.378Z,15.50
2022-11-19T15:21:22.345Z,30.20
2022-11-19T15:24:26.927Z,22.10
2022-11-19T15:27:57.945Z,25.00
2022-11-19T15:31:30.818Z,29.90
2022-11-19T15:35:09.607Z,31.40
2022-11-19T15:38:18.512Z,28.50
2022-11-19T15:41:23.765Z,26.00
2022-11-19T15:44:44.775Z,21.50
2022-11-19T15:48:06.893Z,19.60
2022-11-19T15:51:13.699Z,18.40
2022-11-19T15:54:15.387Z,15.60
2022-11-19T15:57:20.455Z,17.70
2022-11-19T16:00:22.709Z,17.10
2022-11-19T16:06:30.158Z,16.80
2022-11-19T16:09:32.666Z,16.80
2022-11-19T16:12:52.962Z,17.70
2022-11-19T16:16:13.007Z,18.10
2022-11-19T16:19:16.120Z,21.20
2022-11-19T16:22:18.052Z,23.10
2022-11-19T16:25:37.109Z,21.00
2022-11-19T16:28:39.024Z,19.00
2022-11-19T16:31:41.028Z,23.70
2022-11-19T16:37:48.590Z,16.90
2022-11-19T16:41:09.504Z,21.70
2022-11-19T16:44:18.411Z,21.50
2022-11-19T16:47:32.614Z,38.50
2022-11-19T16:50:37.092Z,32.80
2022-11-19T16:53:46.733Z,39.60
2022-11-19T16:56:48.954Z,48.50
2022-11-19T16:59:55.975Z,56.60
2022-11-19T17:03:05.292Z,56.00
2022-11-19T17:06:09.056Z,61.00
2022-11-19T17:09:47.067Z,71.00
2022-11-19T17:12:55.771Z,73.10
2022-11-19T17:16:16.529Z,70.20
2022-11-19T17:19:33.339Z,77.10
2022-11-19T17:22:35.959Z,76.80
2022-11-19T17:25:45.996Z,80.40
2022-11-19T17:28:49.986Z,79.70
2022-11-19T17:31:55.588Z,74.50
2022-11-19T17:34:57.371Z,79.30
2022-11-19T17:38:19.242Z,80.50
2022-11-19T17:41:45.397Z,52.80
2022-11-19T17:44:47.475Z,63.20
2022-11-19T17:47:49.546Z,71.70
2022-11-19T17:53:56.179Z,67.80
2022-11-19T17:56:58.212Z,79.10
2022-11-19T17:59:59.945Z,83.60
2022-11-19T18:03:03.193Z,76.60
2022-11-19T18:06:07.516Z,72.50
2022-11-19T18:09:09.166Z,73.30
2022-11-19T18:12:16.520Z,69.50
2022-11-19T18:15:20.262Z,67.90
2022-11-19T18:18:22.018Z,67.80
2022-11-19T18:21:23.747Z,63.20
2022-11-19T18:24:25.460Z,63.80
2022-11-19T18:27:27.350Z,44.00
2022-11-19T18:30:29.062Z,57.60
2022-11-19T18:33:31.671Z,59.00
2022-11-19T18:36:33.351Z,61.80
2022-11-19T18:39:35.162Z,60.70
2022-11-19T18:42:37.208Z,55.20
2022-11-19T18:48:40.761Z,54.50
2022-11-19T18:51:43.675Z,56.60
2022-11-19T18:54:45.935Z,53.00
2022-11-19T18:57:47.717Z,55.90
2022-11-19T19:00:49.321Z,47.60
2022-11-19T19:03:51.752Z,61.00
2022-11-19T19:06:53.516Z,62.60
2022-11-19T19:09:55.157Z,65.80
2022-11-19T19:12:56.826Z,73.10
2022-11-19T19:16:01.265Z,71.90
2022-11-19T19:19:03.443Z,71.30
2022-11-19T19:22:06.716Z,73.20
2022-11-19T19:25:09.072Z,78.30
2022-11-19T19:28:10.793Z,77.80
2022-11-19T19:31:17.503Z,84.70
2022-11-19T19:34:19.765Z,81.40
2022-11-19T19:37:21.420Z,80.10
2022-11-19T19:40:23.186Z,83.10
2022-11-19T19:43:24.860Z,82.50
2022-11-19T19:46:26.789Z,79.70
2022-11-19T19:49:28.891Z,82.60
2022-11-19T19:55:32.417Z,56.50
2022-11-19T19:58:35.216Z,80.40
2022-11-19T20:01:37.010Z,76.50
2022-11-19T20:04:38.765Z,79.70
2022-11-19T20:07:40.567Z,81.40
2022-11-19T20:10:42.443Z,72.50
2022-11-19T20:13:44.389Z,76.70
2022-11-19T20:16:46.184Z,77.00
2022-11-19T20:19:47.898Z,79.00
2022-11-19T20:22:49.641Z,78.70
2022-11-19T20:25:55.907Z,76.70
2022-11-19T20:29:02.949Z,78.30
2022-11-19T20:32:04.711Z,88.10
2022-11-19T20:35:06.766Z,85.50
2022-11-19T20:41:32.270Z,80.80
2022-11-19T20:44:33.978Z,87.50
2022-11-19T20:47:35.715Z,94.00
2022-11-19T20:50:37.445Z,88.30
2022-11-19T20:53:39.393Z,92.80
2022-11-19T20:56:41.933Z,90.30
2022-11-19T20:59:44.065Z,91.30
2022-11-19T21:02:45.724Z,107.10
2022-11-19T21:05:47.463Z,108.70
2022-11-19T21:08:49.483Z,102.10
2022-11-19T21:11:51.149Z,104.10
2022-11-19T21:14:54.347Z,111.90
2022-11-19T21:17:55.994Z,118.00
2022-11-19T21:21:01.448Z,105.30
2022-11-19T21:24:03.706Z,105.40
2022-11-19T21:30:07.749Z,118.00
2022-11-19T21:33:09.675Z,118.80
2022-11-19T21:36:11.941Z,103.20
2022-11-19T21:39:15.811Z,110.70
2022-11-19T21:42:18.118Z,118.70
2022-11-19T21:45:19.883Z,116.80
2022-11-19T21:48:22.377Z,117.40
2022-11-19T21:51:25.338Z,119.70
2022-11-19T21:54:27.607Z,114.20
2022-11-19T21:57:29.335Z,114.70
2022-11-19T22:00:34.045Z,116.80
2022-11-19T22:03:35.890Z,116.70
2022-11-19T22:06:37.530Z,108.00
2022-11-19T22:09:39.175Z,106.40
2022-11-19T22:12:41.211Z,105.10
2022-11-19T22:15:42.939Z,110.00
2022-11-19T22:18:44.991Z,112.00
2022-11-19T22:21:46.704Z,112.20
2022-11-19T22:24:52.016Z,114.20
2022-11-19T22:27:53.879Z,115.40
2022-11-19T22:30:55.511Z,95.80
2022-11-19T22:33:57.118Z,120.00
2022-11-19T22:36:58.843Z,84.30
2022-11-19T22:40:00.639Z,119.60
2022-11-19T22:43:02.577Z,138.20
2022-11-19T22:46:05.638Z,140.50
2022-11-19T22:49:07.380Z,136.10
2022-11-19T22:52:09.390Z,120.80
2022-11-19T22:58:12.680Z,122.80
2022-11-19T23:01:29.863Z,117.20
2022-11-19T23:04:31.578Z,123.80
2022-11-19T23:07:33.273Z,98.00
2022-11-19T23:10:35.411Z,121.00
2022-11-19T23:16:41.635Z,107.00
2022-11-19T23:19:43.330Z,120.00
2022-11-19T23:22:44.895Z,121.10
2022-11-19T23:25:46.555Z,119.60
2022-11-19T23:28:48.936Z,115.00
2022-11-19T23:31:50.590Z,113.70
2022-11-19T23:34:52.247Z,109.70
2022-11-19T23:37:54.027Z,98.50
2022-11-19T23:40:59.831Z,105.60
2022-11-19T23:44:01.870Z,105.90
2022-11-19T23:50:08.073Z,105.20
2022-11-19T23:53:09.694Z,111.90
2022-11-19T23:56:12.980Z,104.50
2022-11-19T23:59:15.182Z,106.20
